| time (UTC) | temp C | wind direction | speed KPH | gust KPH | rain 1hr cm | rain 24hr cm | rain mn cm | humidity % | barometer mb |
| 20260906100808 | 17 | 201 | 1.6 | 1.6 | 0.00 | 0.00 | 0.00 | 99 | 1022.6 |
| 20260906100306 | 17 | 237 | 1.6 | 3.2 | 0.00 | 0.00 | 0.00 | 99 | 1022.6 |
| 20260906095802 | 17 | 356 | 4.8 | 4.8 | 0.00 | 0.00 | 0.00 | 99 | 1022.6 |
| 20260906095257 | 17 | 327 | 4.8 | 4.8 | 0.00 | 0.00 | 0.00 | 99 | 1022.6 |
| 20260906094756 | 17 | 13 | 3.2 | 4.8 | 0.00 | 0.00 | 0.00 | 99 | 1022.6 |
| 20260906094251 | 17 | 210 | 1.6 | 3.2 | 0.00 | 0.00 | 0.00 | 99 | 1022.6 |
| 20260906093748 | 17 | 76 | 1.6 | 4.8 | 0.00 | 0.00 | 0.00 | 99 | 1022.6 |
| 20260906093243 | 17 | 343 | 4.8 | 4.8 | 0.00 | 0.00 | 0.00 | 99 | 1022.5 |
| 20260906092738 | 17 | 30 | 3.2 | 3.2 | 0.00 | 0.00 | 0.00 | 99 | 1023.0 |
| 20260906092238 | 17 | 359 | 4.8 | 4.8 | 0.00 | 0.00 | 0.00 | 99 | 1022.7 |
| 20260906091734 | 17 | 340 | 3.2 | 4.8 | 0.00 | 0.00 | 0.00 | 99 | 1022.7 |
| 20260906091230 | 17 | 302 | 1.6 | 3.2 | 0.00 | 0.00 | 0.00 | 99 | 1022.7 |
| 20260906090726 | 17 | 234 | 0.0 | 1.6 | 0.00 | 0.00 | 0.00 | 99 | 1022.6 |
| 20260906090225 | 17 | 240 | 0.0 | 1.6 | 0.00 | 0.00 | 0.00 | 99 | 1022.4 |
| 20260906085724 | 17 | 28 | 1.6 | 3.2 | 0.00 | 0.00 | 0.00 | 99 | 1022.7 |
| 20260906085223 | 17 | 302 | 1.6 | 3.2 | 0.00 | 0.00 | 0.00 | 99 | 1022.8 |
| 20260906084718 | 17 | 145 | 1.6 | 3.2 | 0.00 | 0.00 | 0.00 | 99 | 1022.5 |
| 20260906084213 | 17 | 215 | 1.6 | 3.2 | 0.00 | 0.00 | 0.00 | 99 | 1022.5 |
| 20260906083708 | 17 | 29 | 1.6 | 3.2 | 0.00 | 0.00 | 0.00 | 99 | 1022.4 |
| 20260906083203 | 17 | 290 | 1.6 | 3.2 | 0.00 | 0.00 | 0.00 | 99 | 1022.4 |
| 20260906082658 | 17 | 219 | 1.6 | 3.2 | 0.00 | 0.00 | 0.00 | 99 | 1022.4 |
| 20260906082153 | 17 | 211 | 1.6 | 1.6 | 0.00 | 0.00 | 0.00 | 99 | 1022.2 |
| 20260906081649 | 17 | 145 | 1.6 | 1.6 | 0.00 | 0.00 | 0.00 | 99 | 1022.4 |
| 20260906081144 | 17 | 191 | 0.0 | 1.6 | 0.00 | 0.00 | 0.00 | 99 | 1022.4 |
| 20260906080640 | 16 | 191 | 0.0 | 0.0 | 0.00 | 0.00 | 0.00 | 99 | 1022.2 |
| 20260906080136 | 16 | 170 | 0.0 | 0.0 | 0.00 | 0.00 | 0.00 | 99 | 1022.3 |
| 20260906075636 | 17 | 197 | 0.0 | 0.0 | 0.00 | 0.00 | 0.00 | 99 | 1022.3 |
| 20260906075130 | 17 | 162 | 0.0 | 0.0 | 0.00 | 0.00 | 0.00 | 99 | 1022.3 |
| 20260906074626 | 17 | 162 | 0.0 | 0.0 | 0.00 | 0.00 | 0.00 | 99 | 1022.4 |
| 20260906074124 | 17 | 156 | 0.0 | 0.0 | 0.00 | 0.00 | 0.00 | 99 | 1022.5 |
| 20260906073619 | 17 | 163 | 0.0 | 0.0 | 0.00 | 0.00 | 0.00 | 99 | 1022.2 |
| 20260906073115 | 17 | 163 | 0.0 | 0.0 | 0.00 | 0.00 | 0.00 | 99 | 1022.7 |
| 20260906072611 | 17 | 165 | 0.0 | 1.6 | 0.00 | 0.00 | 0.00 | 99 | 1022.3 |
| 20260906072107 | 17 | 173 | 0.0 | 0.0 | 0.00 | 0.00 | 0.00 | 99 | 1022.6 |
| 20260906071603 | 17 | 188 | 0.0 | 1.6 | 0.00 | 0.00 | 0.00 | 99 | 1022.6 |
| 20260906071102 | 17 | 170 | 0.0 | 0.0 | 0.00 | 0.00 | 0.00 | 99 | 1022.6 |
| 20260906070559 | 17 | 169 | 0.0 | 0.0 | 0.00 | 0.00 | 0.00 | 99 | 1022.8 |
| 20260906070054 | 17 | 170 | 0.0 | 0.0 | 0.00 | 0.00 | 0.00 | 99 | 1022.6 |
| 20260906065554 | 17 | 191 | 0.0 | 0.0 | 0.00 | 0.00 | 0.00 | 99 | 1022.8 |
| 20260906065049 | 17 | 195 | 0.0 | 0.0 | 0.00 | 0.00 | 0.00 | 99 | 1022.6 |
| 20260906064545 | 17 | 225 | 1.6 | 3.2 | 0.00 | 0.00 | 0.00 | 99 | 1022.8 |
| 20260906064040 | 17 | 197 | 0.0 | 1.6 | 0.00 | 0.00 | 0.00 | 99 | 1022.9 |
| 20260906063536 | 17 | 258 | 1.6 | 1.6 | 0.00 | 0.00 | 0.00 | 99 | 1022.8 |
| 20260906063032 | 17 | 193 | 0.0 | 0.0 | 0.00 | 0.00 | 0.00 | 99 | 1022.8 |
| 20260906062526 | 17 | 229 | 1.6 | 1.6 | 0.00 | 0.00 | 0.00 | 99 | 1022.7 |
| 20260906062021 | 17 | 208 | 0.0 | 1.6 | 0.00 | 0.00 | 0.00 | 99 | 1022.7 |
| 20260906061517 | 17 | 226 | 1.6 | 3.2 | 0.00 | 0.00 | 0.00 | 99 | 1022.6 |
| 20260906061016 | 17 | 213 | 1.6 | 3.2 | 0.00 | 0.00 | 0.00 | 99 | 1022.7 |
| 20260906060513 | 18 | 205 | 1.6 | 3.2 | 0.00 | 0.00 | 0.00 | 99 | 1022.7 |
| 20260906060010 | 18 | 206 | 1.6 | 1.6 | 0.00 | 0.00 | 0.00 | 99 | 1022.8 |
| 20260906055506 | 18 | 222 | 1.6 | 1.6 | 0.00 | 0.00 | 0.00 | 99 | 1022.6 |
| 20260906055001 | 18 | 205 | 0.0 | 1.6 | 0.00 | 0.00 | 0.00 | 99 | 1022.5 |
| 20260906054500 | 18 | 205 | 1.6 | 3.2 | 0.00 | 0.00 | 0.00 | 99 | 1022.5 |
| 20260906053956 | 18 | 269 | 1.6 | 3.2 | 0.00 | 0.00 | 0.00 | 99 | 1022.6 |
| 20260906053452 | 18 | 241 | 1.6 | 1.6 | 0.00 | 0.00 | 0.00 | 99 | 1022.5 |
| 20260906052948 | 18 | 230 | 1.6 | 1.6 | 0.00 | 0.00 | 0.00 | 99 | 1022.5 |
| 20260906052443 | 18 | 219 | 1.6 | 3.2 | 0.00 | 0.00 | 0.00 | 99 | 1022.6 |
| 20260906051940 | 18 | 212 | 1.6 | 1.6 | 0.00 | 0.00 | 0.00 | 99 | 1022.7 |
| 20260906051435 | 18 | 190 | 0.0 | 0.0 | 0.00 | 0.00 | 0.00 | 98 | 1022.5 |
| 20260906050931 | 18 | 189 | 0.0 | 0.0 | 0.00 | 0.00 | 0.00 | 98 | 1022.5 |
| 20260906050431 | 18 | 197 | 0.0 | 0.0 | 0.00 | 0.00 | 0.00 | 98 | 1022.4 |
| 20260906045930 | 18 | 206 | 0.0 | 1.6 | 0.00 | 0.00 | 0.00 | 98 | 1022.3 |
| 20260906045429 | 18 | 200 | 0.0 | 0.0 | 0.00 | 0.00 | 0.00 | 98 | 1022.3 |
| 20260906044926 | 18 | 194 | 0.0 | 0.0 | 0.00 | 0.00 | 0.00 | 98 | 1022.5 |
| 20260906044425 | 18 | 171 | 0.0 | 0.0 | 0.00 | 0.00 | 0.00 | 98 | 1022.1 |
| 20260906043921 | 18 | 150 | 0.0 | 1.6 | 0.00 | 0.00 | 0.00 | 98 | 1022.2 |
| 20260906043417 | 18 | 133 | 1.6 | 1.6 | 0.00 | 0.00 | 0.00 | 98 | 1022.2 |
| 20260906042913 | 18 | 106 | 1.6 | 3.2 | 0.00 | 0.00 | 0.00 | 98 | 1022.2 |
| 20260906042412 | 18 | 145 | 0.0 | 0.0 | 0.00 | 0.00 | 0.00 | 97 | 1022.3 |
| 20260906041907 | 18 | 143 | 0.0 | 0.0 | 0.00 | 0.00 | 0.00 | 97 | 1022.1 |
| 20260906041403 | 18 | 108 | 0.0 | 0.0 | 0.00 | 0.00 | 0.00 | 97 | 1022.2 |
| 20260906040902 | 18 | 163 | 0.0 | 0.0 | 0.00 | 0.00 | 0.00 | 97 | 1022.0 |
| 20260906040357 | 18 | 163 | 0.0 | 0.0 | 0.00 | 0.00 | 0.00 | 97 | 1021.8 |
| 20260906035853 | 19 | 167 | 0.0 | 0.0 | 0.00 | 0.00 | 0.00 | 97 | 1021.9 |
| 20260906035348 | 19 | 162 | 0.0 | 0.0 | 0.00 | 0.00 | 0.00 | 97 | 1022.0 |
| 20260906034843 | 20 | 192 | 0.0 | 0.0 | 0.00 | 0.00 | 0.00 | 96 | 1022.0 |
| 20260906034338 | 20 | 175 | 0.0 | 0.0 | 0.00 | 0.00 | 0.00 | 96 | 1021.9 |
| 20260906033834 | 20 | 185 | 1.6 | 3.2 | 0.00 | 0.00 | 0.00 | 96 | 1021.8 |
| 20260906033333 | 20 | 197 | 0.0 | 0.0 | 0.00 | 0.00 | 0.00 | 96 | 1021.9 |
| 20260906032830 | 20 | 159 | 0.0 | 1.6 | 0.00 | 0.00 | 0.00 | 96 | 1021.8 |
| 20260906032325 | 20 | 192 | 0.0 | 1.6 | 0.00 | 0.00 | 0.00 | 96 | 1021.8 |
| 20260906031820 | 20 | 159 | 0.0 | 1.6 | 0.00 | 0.00 | 0.00 | 95 | 1021.8 |
| 20260906031316 | 20 | 162 | 1.6 | 3.2 | 0.00 | 0.00 | 0.00 | 95 | 1021.7 |
| 20260906030815 | 20 | 150 | 0.0 | 1.6 | 0.00 | 0.00 | 0.00 | 95 | 1021.7 |
| 20260906030311 | 20 | 167 | 0.0 | 1.6 | 0.00 | 0.00 | 0.00 | 95 | 1021.9 |
| 20260906025810 | 20 | 76 | 4.8 | 4.8 | 0.00 | 0.00 | 0.00 | 95 | 1021.4 |
| 20260906025306 | 20 | 176 | 1.6 | 3.2 | 0.00 | 0.00 | 0.00 | 95 | 1021.7 |
| 20260906024804 | 20 | 138 | 1.6 | 4.8 | 0.00 | 0.00 | 0.00 | 95 | 1021.3 |
| 20260906024303 | 20 | 156 | 1.6 | 4.8 | 0.00 | 0.00 | 0.00 | 95 | 1021.2 |
| 20260906023759 | 20 | 147 | 1.6 | 1.6 | 0.00 | 0.00 | 0.00 | 95 | 1021.4 |
| 20260906023254 | 21 | 173 | 1.6 | 3.2 | 0.00 | 0.00 | 0.00 | 95 | 1021.1 |
| 20260906022749 | 21 | 172 | 0.0 | 1.6 | 0.00 | 0.00 | 0.00 | 94 | 1021.1 |
| 20260906022244 | 21 | 167 | 0.0 | 3.2 | 0.00 | 0.00 | 0.00 | 94 | 1021.1 |
| 20260906021741 | 21 | 157 | 1.6 | 3.2 | 0.00 | 0.00 | 0.00 | 94 | 1021.1 |
| 20260906021240 | 21 | 197 | 1.6 | 8.0 | 0.00 | 0.00 | 0.00 | 94 | 1020.9 |
| 20260906020735 | 21 | 136 | 3.2 | 3.2 | 0.00 | 0.00 | 0.00 | 94 | 1020.9 |
| 20260906020234 | 21 | 161 | 1.6 | 3.2 | 0.00 | 0.00 | 0.00 | 94 | 1020.8 |
| 20260906015729 | 21 | 166 | 1.6 | 8.0 | 0.00 | 0.00 | 0.00 | 94 | 1020.4 |
| 20260906015227 | 21 | 126 | 8.0 | 14.5 | 0.00 | 0.00 | 0.00 | 94 | 1020.4 |
| 20260906014722 | 21 | 179 | 1.6 | 3.2 | 0.00 | 0.00 | 0.00 | 94 | 1020.4 |
| 20260906014218 | 21 | 156 | 3.2 | 4.8 | 0.00 | 0.00 | 0.00 | 94 | 1020.4 |
| 20260906013714 | 21 | 157 | 1.6 | 4.8 | 0.00 | 0.00 | 0.00 | 94 | 1020.4 |
| 20260906013214 | 21 | 192 | 0.0 | 1.6 | 0.00 | 0.00 | 0.00 | 94 | 1020.5 |
| 20260906012709 | 21 | 164 | 1.6 | 3.2 | 0.00 | 0.00 | 0.00 | 94 | 1020.1 |
| 20260906012203 | 21 | 174 | 0.0 | 1.6 | 0.00 | 0.00 | 0.00 | 94 | 1020.1 |
| 20260906011659 | 21 | 109 | 3.2 | 4.8 | 0.00 | 0.00 | 0.00 | 95 | 1020.0 |
| 20260906011154 | 21 | 189 | 0.0 | 4.8 | 0.00 | 0.00 | 0.00 | 95 | 1020.1 |
| 20260906010649 | 21 | 231 | 1.6 | 1.6 | 0.00 | 0.00 | 0.00 | 95 | 1020.1 |
| 20260906010146 | 21 | 221 | 0.0 | 1.6 | 0.00 | 0.00 | 0.00 | 95 | 1020.0 |
| 20260906005645 | 21 | 237 | 1.6 | 3.2 | 0.00 | 0.00 | 0.00 | 95 | 1020.1 |
| 20260906005144 | 21 | 222 | 0.0 | 1.6 | 0.00 | 0.00 | 0.00 | 95 | 1020.3 |
| 20260906004643 | 21 | 223 | 1.6 | 1.6 | 0.00 | 0.00 | 0.00 | 95 | 1020.3 |
| 20260906004138 | 21 | 224 | 0.0 | 0.0 | 0.00 | 0.00 | 0.00 | 94 | 1020.6 |
| 20260906003633 | 21 | 224 | 0.0 | 0.0 | 0.00 | 0.00 | 0.00 | 94 | 1020.4 |
| 20260906003129 | 21 | 213 | 1.6 | 1.6 | 0.00 | 0.00 | 0.00 | 94 | 1020.6 |
| 20260906002624 | 22 | 273 | 1.6 | 3.2 | 0.00 | 0.00 | 0.00 | 93 | 1020.6 |
| 20260906002119 | 22 | 257 | 1.6 | 3.2 | 0.00 | 0.00 | 0.00 | 93 | 1020.6 |
| 20260906001614 | 22 | 192 | 0.0 | 0.0 | 0.00 | 0.00 | 0.00 | 93 | 1020.6 |
| 20260906001108 | 22 | 192 | 0.0 | 0.0 | 0.00 | 0.00 | 0.00 | 92 | 1020.5 |
| 20260906000604 | 22 | 199 | 0.0 | 0.0 | 0.00 | 0.00 | 0.00 | 91 | 1020.3 |
| 20260906000059 | 22 | 205 | 1.6 | 1.6 | 0.00 | 0.00 | 0.00 | 91 | 1020.3 |
| 20260905235558 | 22 | 205 | 1.6 | 1.6 | 0.00 | 0.00 | 0.00 | 90 | 1020.3 |
| 20260905235054 | 23 | 255 | 1.6 | 3.2 | 0.00 | 0.00 | 0.00 | 89 | 1020.3 |
| 20260905234549 | 23 | 157 | 0.0 | 1.6 | 0.00 | 0.00 | 0.00 | 88 | 1020.5 |
| 20260905234044 | 23 | 187 | 1.6 | 3.2 | 0.00 | 0.00 | 0.00 | 88 | 1020.5 |
| 20260905233539 | 23 | 219 | 1.6 | 3.2 | 0.00 | 0.00 | 0.00 | 87 | 1020.3 |
| 20260905233038 | 24 | 4 | 4.8 | 4.8 | 0.00 | 0.00 | 0.00 | 86 | 1020.4 |
| 20260905232533 | 25 | 143 | 3.2 | 4.8 | 0.00 | 0.00 | 0.00 | 85 | 1020.4 |
| 20260905232029 | 25 | 178 | 1.6 | 3.2 | 0.00 | 0.00 | 0.00 | 83 | 1020.4 |
| 20260905231524 | 25 | 280 | 1.6 | 8.0 | 0.00 | 0.00 | 0.00 | 82 | 1020.3 |
| 20260905231021 | 25 | 127 | 1.6 | 3.2 | 0.00 | 0.00 | 0.00 | 81 | 1020.6 |
| 20260905230519 | 26 | 66 | 4.8 | 8.0 | 0.00 | 0.00 | 0.00 | 80 | 1020.6 |
| 20260905230018 | 26 | 357 | 3.2 | 4.8 | 0.00 | 0.00 | 0.00 | 82 | 1020.3 |
| 20260905225513 | 25 | 245 | 3.2 | 3.2 | 0.00 | 0.00 | 0.00 | 83 | 1020.6 |
| 20260905225008 | 25 | 48 | 3.2 | 4.8 | 0.00 | 0.00 | 0.00 | 84 | 1020.4 |
| 20260905224503 | 24 | 68 | 4.8 | 4.8 | 0.00 | 0.00 | 0.00 | 85 | 1020.5 |
| 20260905224002 | 25 | 358 | 4.8 | 4.8 | 0.00 | 0.00 | 0.00 | 84 | 1020.4 |
| 20260905223500 | 25 | 350 | 3.2 | 11.3 | 0.00 | 0.00 | 0.00 | 83 | 1020.6 |
| 20260905222955 | 26 | 19 | 8.0 | 11.3 | 0.00 | 0.00 | 0.00 | 82 | 1020.4 |
| 20260905222450 | 26 | 141 | 8.0 | 12.9 | 0.00 | 0.00 | 0.00 | 80 | 1020.1 |
| 20260905221945 | 26 | 17 | 4.8 | 8.0 | 0.00 | 0.00 | 0.00 | 81 | 1020.1 |
| 20260905221442 | 26 | 254 | 1.6 | 4.8 | 0.00 | 0.00 | 0.00 | 79 | 1020.1 |
| 20260905220938 | 27 | 7 | 8.0 | 9.7 | 0.00 | 0.00 | 0.00 | 77 | 1019.9 |
| 20260905220434 | 27 | 107 | 4.8 | 9.7 | 0.00 | 0.00 | 0.00 | 77 | 1019.8 |
| 20260905215933 | 27 | 139 | 3.2 | 8.0 | 0.00 | 0.00 | 0.00 | 78 | 1019.9 |
| 20260905215428 | 26 | 161 | 1.6 | 4.8 | 0.00 | 0.00 | 0.00 | 79 | 1019.9 |
| 20260905214924 | 26 | 37 | 4.8 | 8.0 | 0.00 | 0.00 | 0.00 | 79 | 1020.0 |
| 20260905214420 | 26 | 356 | 4.8 | 11.3 | 0.00 | 0.00 | 0.00 | 80 | 1020.1 |
| 20260905213919 | 26 | 47 | 3.2 | 4.8 | 0.00 | 0.00 | 0.00 | 82 | 1020.0 |
| 20260905213416 | 25 | 8 | 3.2 | 4.8 | 0.00 | 0.00 | 0.00 | 83 | 1020.0 |
| 20260905212912 | 25 | 338 | 3.2 | 4.8 | 0.00 | 0.00 | 0.00 | 82 | 1020.1 |
| 20260905212406 | 25 | 347 | 6.4 | 8.0 | 0.00 | 0.00 | 0.00 | 81 | 1020.3 |
| 20260905211905 | 25 | 4 | 4.8 | 8.0 | 0.00 | 0.00 | 0.00 | 81 | 1020.3 |
| 20260905211401 | 25 | 10 | 4.8 | 11.3 | 0.00 | 0.00 | 0.00 | 81 | 1020.1 |
| 20260905210857 | 26 | 303 | 3.2 | 8.0 | 0.00 | 0.00 | 0.00 | 81 | 1020.1 |
| 20260905210356 | 25 | 16 | 8.0 | 11.3 | 0.00 | 0.00 | 0.00 | 80 | 1020.1 |
| 20260905205856 | 26 | 282 | 3.2 | 8.0 | 0.00 | 0.00 | 0.00 | 80 | 1020.0 |
| 20260905205351 | 25 | 87 | 4.8 | 8.0 | 0.00 | 0.00 | 0.00 | 79 | 1020.3 |
| 20260905204849 | 25 | 349 | 8.0 | 14.5 | 0.00 | 0.00 | 0.00 | 80 | 1020.3 |
| 20260905204346 | 25 | 56 | 1.6 | 8.0 | 0.00 | 0.00 | 0.00 | 80 | 1020.4 |
| 20260905203839 | 25 | 33 | 8.0 | 11.3 | 0.00 | 0.00 | 0.00 | 79 | 1020.4 |
| 20260905203335 | 26 | 347 | 3.2 | 9.7 | 0.00 | 0.00 | 0.00 | 80 | 1020.6 |
| 20260905202830 | 26 | 84 | 6.4 | 8.0 | 0.00 | 0.00 | 0.00 | 81 | 1020.5 |
| 20260905202325 | 26 | 19 | 8.0 | 12.9 | 0.00 | 0.00 | 0.00 | 80 | 1020.4 |
| 20260905201821 | 26 | 139 | 1.6 | 4.8 | 0.00 | 0.00 | 0.00 | 82 | 1020.6 |
| 20260905201316 | 26 | 350 | 6.4 | 11.3 | 0.00 | 0.00 | 0.00 | 82 | 1020.1 |
| 20260905200810 | 26 | 41 | 3.2 | 9.7 | 0.00 | 0.00 | 0.00 | 81 | 1020.3 |
| 20260905200307 | 26 | 128 | 4.8 | 16.1 | 0.00 | 0.00 | 0.00 | 81 | 1020.4 |
| 20260905195804 | 27 | 338 | 1.6 | 3.2 | 0.00 | 0.00 | 0.00 | 79 | 1020.1 |
| 20260905195300 | 27 | 354 | 3.2 | 8.0 | 0.00 | 0.00 | 0.00 | 80 | 1020.1 |
| 20260905194756 | 27 | 17 | 6.4 | 11.3 | 0.00 | 0.00 | 0.00 | 79 | 1020.1 |
| 20260905194254 | 27 | 162 | 4.8 | 9.7 | 0.00 | 0.00 | 0.00 | 81 | 1020.3 |
| 20260905193754 | 26 | 130 | 4.8 | 11.3 | 0.00 | 0.00 | 0.00 | 83 | 1020.3 |
| 20260905193249 | 27 | 44 | 4.8 | 17.7 | 0.00 | 0.00 | 0.00 | 81 | 1020.4 |
| 20260905192744 | 27 | 137 | 4.8 | 8.0 | 0.00 | 0.00 | 0.00 | 78 | 1020.3 |
| 20260905192241 | 27 | 226 | 0.0 | 4.8 | 0.00 | 0.00 | 0.00 | 80 | 1020.4 |
| 20260905191740 | 26 | 309 | 8.0 | 12.9 | 0.00 | 0.00 | 0.00 | 79 | 1020.1 |
| 20260905191239 | 26 | 73 | 4.8 | 11.3 | 0.00 | 0.00 | 0.00 | 81 | 1020.1 |
| 20260905190737 | 26 | 341 | 4.8 | 8.0 | 0.00 | 0.00 | 0.00 | 82 | 1020.4 |
| 20260905190236 | 26 | 280 | 4.8 | 4.8 | 0.00 | 0.00 | 0.00 | 83 | 1020.3 |
| 20260905185735 | 25 | 120 | 3.2 | 4.8 | 0.00 | 0.00 | 0.00 | 84 | 1020.5 |
| 20260905185230 | 25 | 1 | 6.4 | 9.7 | 0.00 | 0.00 | 0.00 | 84 | 1020.7 |
| 20260905184725 | 25 | 70 | 4.8 | 9.7 | 0.00 | 0.00 | 0.00 | 84 | 1020.6 |
| 20260905184224 | 25 | 176 | 1.6 | 8.0 | 0.00 | 0.00 | 0.00 | 86 | 1020.6 |
| 20260905183723 | 25 | 348 | 3.2 | 8.0 | 0.00 | 0.00 | 0.00 | 86 | 1020.5 |
| 20260905183219 | 25 | 51 | 4.8 | 4.8 | 0.00 | 0.00 | 0.00 | 85 | 1020.5 |
| 20260905182718 | 25 | 74 | 8.0 | 11.3 | 0.00 | 0.00 | 0.00 | 85 | 1020.7 |
| 20260905182213 | 25 | 63 | 6.4 | 9.7 | 0.00 | 0.00 | 0.00 | 87 | 1020.6 |
| 20260905181708 | 25 | 166 | 3.2 | 11.3 | 0.00 | 0.00 | 0.00 | 88 | 1020.8 |
| 20260905181207 | 24 | 349 | 3.2 | 9.7 | 0.00 | 0.00 | 0.00 | 88 | 1020.8 |
| 20260905180702 | 24 | 7 | 8.0 | 11.3 | 0.00 | 0.00 | 0.00 | 88 | 1020.8 |
| 20260905180157 | 24 | 25 | 8.0 | 12.9 | 0.00 | 0.00 | 0.00 | 88 | 1020.8 |
| 20260905175656 | 24 | 330 | 3.2 | 9.7 | 0.00 | 0.00 | 0.00 | 89 | 1020.9 |
| 20260905175151 | 23 | 30 | 3.2 | 8.0 | 0.00 | 0.00 | 0.00 | 90 | 1020.9 |
| 20260905174647 | 23 | 81 | 4.8 | 8.0 | 0.00 | 0.00 | 0.00 | 90 | 1020.9 |
| 20260905174143 | 23 | 34 | 3.2 | 8.0 | 0.00 | 0.00 | 0.00 | 91 | 1021.1 |
| 20260905173638 | 23 | 123 | 4.8 | 4.8 | 0.00 | 0.00 | 0.00 | 91 | 1021.0 |
| 20260905173134 | 23 | 90 | 4.8 | 8.0 | 0.00 | 0.00 | 0.00 | 92 | 1021.1 |
| 20260905172633 | 23 | 315 | 8.0 | 9.7 | 0.00 | 0.00 | 0.00 | 92 | 1021.0 |
| 20260905172128 | 23 | 309 | 1.6 | 8.0 | 0.00 | 0.00 | 0.00 | 92 | 1020.9 |
| 20260905171624 | 23 | 157 | 4.8 | 8.0 | 0.00 | 0.00 | 0.00 | 92 | 1020.9 |
| 20260905171120 | 23 | 68 | 3.2 | 3.2 | 0.00 | 0.00 | 0.00 | 92 | 1021.1 |
| 20260905170616 | 23 | 344 | 4.8 | 12.9 | 0.00 | 0.00 | 0.00 | 91 | 1021.0 |
| 20260905170111 | 23 | 32 | 4.8 | 9.7 | 0.00 | 0.00 | 0.00 | 92 | 1021.0 |
| 20260905165611 | 23 | 340 | 4.8 | 8.0 | 0.00 | 0.00 | 0.00 | 92 | 1021.1 |
| 20260905165107 | 23 | 214 | 1.6 | 1.6 | 0.00 | 0.00 | 0.00 | 92 | 1021.1 |
| 20260905164601 | 23 | 155 | 1.6 | 8.0 | 0.00 | 0.00 | 0.00 | 92 | 1021.2 |
| 20260905164055 | 23 | 38 | 4.8 | 11.3 | 0.00 | 0.00 | 0.00 | 92 | 1021.2 |
| 20260905163552 | 23 | 336 | 4.8 | 8.0 | 0.00 | 0.00 | 0.00 | 92 | 1021.2 |
| 20260905163048 | 23 | 43 | 3.2 | 4.8 | 0.00 | 0.00 | 0.00 | 92 | 1021.1 |
| 20260905162544 | 23 | 303 | 4.8 | 9.7 | 0.00 | 0.00 | 0.00 | 92 | 1020.9 |
| 20260905162043 | 23 | 43 | 1.6 | 8.0 | 0.00 | 0.00 | 0.00 | 92 | 1021.0 |
| 20260905161543 | 23 | 22 | 3.2 | 8.0 | 0.00 | 0.00 | 0.00 | 92 | 1021.0 |
| 20260905161041 | 23 | 72 | 3.2 | 9.7 | 0.00 | 0.00 | 0.00 | 92 | 1021.1 |
| 20260905160539 | 23 | 187 | 1.6 | 4.8 | 0.00 | 0.00 | 0.00 | 93 | 1020.8 |
| 20260905160034 | 23 | 64 | 8.0 | 11.3 | 0.00 | 0.00 | 0.00 | 93 | 1020.9 |
| 20260905155534 | 23 | 125 | 4.8 | 11.3 | 0.00 | 0.00 | 0.00 | 93 | 1020.8 |
| 20260905155032 | 23 | 169 | 1.6 | 8.0 | 0.00 | 0.00 | 0.00 | 94 | 1020.9 |
| 20260905154528 | 22 | 307 | 1.6 | 9.7 | 0.00 | 0.00 | 0.00 | 95 | 1020.8 |
| 20260905154023 | 22 | 16 | 3.2 | 4.8 | 0.00 | 0.00 | 0.00 | 96 | 1021.0 |
| 20260905153519 | 22 | 51 | 4.8 | 4.8 | 0.00 | 0.00 | 0.00 | 96 | 1020.7 |
| 20260905153019 | 22 | 201 | 1.6 | 4.8 | 0.00 | 0.00 | 0.00 | 97 | 1020.7 |
| 20260905152519 | 22 | 161 | 0.0 | 8.0 | 0.00 | 0.00 | 0.00 | 97 | 1021.0 |
| 20260905152014 | 22 | 163 | 1.6 | 3.2 | 0.00 | 0.00 | 0.00 | 97 | 1020.9 |
| 20260905151509 | 22 | 159 | 1.6 | 3.2 | 0.00 | 0.00 | 0.00 | 98 | 1020.8 |
| 20260905151004 | 22 | 138 | 3.2 | 8.0 | 0.00 | 0.00 | 0.00 | 98 | 1020.7 |
| 20260905150459 | 22 | 104 | 4.8 | 8.0 | 0.00 | 0.00 | 0.00 | 98 | 1020.6 |
| 20260905145956 | 22 | 99 | 4.8 | 4.8 | 0.00 | 0.00 | 0.00 | 99 | 1020.5 |
| 20260905145451 | 22 | 310 | 3.2 | 4.8 | 0.00 | 0.00 | 0.00 | 99 | 1020.7 |
| 20260905144950 | 22 | 204 | 1.6 | 3.2 | 0.00 | 0.00 | 0.00 | 99 | 1020.5 |
| 20260905144446 | 21 | 11 | 6.4 | 9.7 | 0.00 | 0.00 | 0.00 | 99 | 1020.5 |
| 20260905143944 | 21 | 102 | 4.8 | 9.7 | 0.00 | 0.00 | 0.00 | 99 | 1020.4 |
| 20260905143443 | 21 | 353 | 3.2 | 8.0 | 0.00 | 0.00 | 0.00 | 99 | 1020.3 |
| 20260905142938 | 21 | 14 | 3.2 | 4.8 | 0.00 | 0.00 | 0.00 | 99 | 1020.0 |
| 20260905142437 | 21 | 121 | 1.6 | 4.8 | 0.00 | 0.00 | 0.00 | 99 | 1020.1 |
| 20260905141933 | 21 | 134 | 3.2 | 4.8 | 0.00 | 0.00 | 0.00 | 99 | 1020.0 |
| 20260905141427 | 21 | 100 | 1.6 | 3.2 | 0.00 | 0.00 | 0.00 | 99 | 1019.9 |
| 20260905140924 | 21 | 355 | 4.8 | 9.7 | 0.00 | 0.00 | 0.00 | 99 | 1019.9 |
| 20260905140419 | 21 | 179 | 0.0 | 3.2 | 0.00 | 0.00 | 0.00 | 99 | 1019.8 |
| 20260905135918 | 21 | 86 | 1.6 | 3.2 | 0.00 | 0.00 | 0.00 | 99 | 1019.6 |
| 20260905135413 | 21 | 170 | 3.2 | 3.2 | 0.00 | 0.00 | 0.00 | 99 | 1019.7 |
| 20260905134909 | 21 | 353 | 4.8 | 4.8 | 0.00 | 0.00 | 0.00 | 99 | 1019.8 |
| 20260905134403 | 21 | 293 | 3.2 | 3.2 | 0.00 | 0.00 | 0.00 | 99 | 1019.5 |
| 20260905133856 | 21 | 275 | 1.6 | 3.2 | 0.00 | 0.00 | 0.00 | 99 | 1019.5 |
| 20260905133351 | 21 | 225 | 3.2 | 4.8 | 0.00 | 0.00 | 0.00 | 99 | 1019.7 |
| 20260905132850 | 21 | 99 | 3.2 | 8.0 | 0.00 | 0.00 | 0.00 | 99 | 1019.6 |
| 20260905132346 | 21 | 316 | 6.4 | 9.7 | 0.00 | 0.00 | 0.00 | 99 | 1019.5 |
| 20260905131846 | 21 | 66 | 3.2 | 4.8 | 0.00 | 0.00 | 0.00 | 99 | 1019.5 |
| 20260905131342 | 21 | 253 | 1.6 | 3.2 | 0.00 | 0.00 | 0.00 | 99 | 1019.7 |
| 20260905130837 | 21 | 249 | 1.6 | 4.8 | 0.00 | 0.00 | 0.00 | 99 | 1019.5 |
| 20260905130335 | 21 | 341 | 1.6 | 4.8 | 0.00 | 0.00 | 0.00 | 99 | 1019.4 |
| 20260905125831 | 21 | 254 | 1.6 | 4.8 | 0.00 | 0.00 | 0.00 | 99 | 1019.0 |
| 20260905125326 | 21 | 336 | 4.8 | 8.0 | 0.00 | 0.00 | 0.00 | 99 | 1019.3 |
| 20260905124822 | 21 | 40 | 9.7 | 12.9 | 0.00 | 0.00 | 0.00 | 99 | 1019.3 |
| 20260905124313 | 21 | 72 | 1.6 | 12.9 | 0.00 | 0.00 | 0.00 | 99 | 1019.3 |
| 20260905123813 | 21 | 332 | 4.8 | 12.9 | 0.00 | 0.00 | 0.00 | 99 | 1019.5 |
| 20260905123310 | 21 | 344 | 8.0 | 12.9 | 0.00 | 0.00 | 0.00 | 99 | 1019.4 |
| 20260905122809 | 21 | 21 | 6.4 | 9.7 | 0.00 | 0.00 | 0.00 | 99 | 1019.5 |
| 20260905122309 | 21 | 46 | 6.4 | 11.3 | 0.00 | 0.00 | 0.00 | 99 | 1019.4 |
| 20260905121804 | 21 | 355 | 4.8 | 8.0 | 0.00 | 0.00 | 0.00 | 99 | 1019.3 |
| 20260905121301 | 21 | 344 | 6.4 | 9.7 | 0.00 | 0.00 | 0.00 | 99 | 1018.8 |
| 20260905120759 | 21 | 344 | 4.8 | 8.0 | 0.00 | 0.00 | 0.00 | 99 | 1018.8 |
| 20260905120259 | 21 | 356 | 3.2 | 4.8 | 0.00 | 0.00 | 0.00 | 99 | 1018.7 |
| 20260905115754 | 21 | 321 | 4.8 | 9.7 | 0.00 | 0.00 | 0.00 | 99 | 1018.4 |
| 20260905115254 | 21 | 279 | 4.8 | 8.0 | 0.00 | 0.00 | 0.00 | 99 | 1018.6 |
| 20260905114754 | 21 | 10 | 9.7 | 11.3 | 0.00 | 0.00 | 0.00 | 99 | 1018.6 |
| 20260905114253 | 21 | 310 | 4.8 | 8.0 | 0.00 | 0.00 | 0.00 | 99 | 1018.3 |
| 20260905113752 | 21 | 11 | 3.2 | 3.2 | 0.00 | 0.00 | 0.00 | 99 | 1018.2 |
| 20260905113248 | 21 | 64 | 3.2 | 3.2 | 0.00 | 0.00 | 0.00 | 99 | 1018.1 |
| 20260905112743 | 21 | 0 | 4.8 | 4.8 | 0.00 | 0.00 | 0.00 | 99 | 1018.0 |
| 20260905112243 | 21 | 119 | 1.6 | 3.2 | 0.00 | 0.00 | 0.00 | 99 | 1018.1 |
| 20260905111739 | 21 | 223 | 1.6 | 4.8 | 0.00 | 0.00 | 0.00 | 99 | 1018.0 |
| 20260905111233 | 21 | 206 | 1.6 | 1.6 | 0.00 | 0.00 | 0.00 | 99 | 1017.6 |
| 20260905110732 | 21 | 147 | 1.6 | 1.6 | 0.00 | 0.00 | 0.00 | 99 | 1017.7 |
| 20260905110227 | 21 | 177 | 0.0 | 1.6 | 0.00 | 0.00 | 0.00 | 99 | 1017.6 |
| 20260905105722 | 21 | 177 | 0.0 | 0.0 | 0.00 | 0.00 | 0.00 | 99 | 1017.6 |
| 20260905105221 | 21 | 177 | 0.0 | 0.0 | 0.00 | 0.00 | 0.00 | 99 | 1017.6 |
| 20260905104716 | 21 | 177 | 0.0 | 0.0 | 0.00 | 0.00 | 0.00 | 99 | 1017.8 |
| 20260905104212 | 21 | 177 | 0.0 | 0.0 | 0.00 | 0.00 | 0.00 | 99 | 1017.6 |
| 20260905103707 | 21 | 218 | 1.6 | 1.6 | 0.00 | 0.00 | 0.00 | 99 | 1017.8 |
| 20260905103203 | 21 | 143 | 0.0 | 0.0 | 0.00 | 0.00 | 0.00 | 99 | 1017.5 |
| 20260905102658 | 21 | 143 | 0.0 | 3.2 | 0.00 | 0.00 | 0.00 | 99 | 1017.6 |
| 20260905102154 | 21 | 167 | 0.0 | 0.0 | 0.00 | 0.00 | 0.00 | 99 | 1017.6 |
| 20260905101653 | 21 | 156 | 0.0 | 1.6 | 0.00 | 0.00 | 0.00 | 99 | 1017.7 |